createdAt,value
2019-03-11T00:00:03.730Z,4.90
2019-03-11T00:05:10.180Z,4.80
2019-03-11T00:10:16.469Z,4.60
2019-03-11T00:15:22.421Z,4.40
2019-03-11T00:20:29.074Z,4.80
2019-03-11T00:25:35.790Z,5.10
2019-03-11T00:30:42.500Z,5.40
2019-03-11T00:35:49.671Z,5.50
2019-03-11T00:40:57.241Z,5.50
2019-03-11T00:46:04.366Z,5.40
2019-03-11T00:51:11.819Z,5.40
2019-03-11T00:56:18.957Z,5.60
2019-03-11T01:01:26.280Z,5.50
2019-03-11T01:06:33.385Z,5.50
2019-03-11T01:11:40.513Z,5.50
2019-03-11T01:16:46.536Z,5.60
2019-03-11T01:21:52.972Z,5.50
2019-03-11T01:26:59.220Z,5.50
2019-03-11T01:32:25.290Z,5.60
2019-03-11T01:37:32.319Z,5.50
2019-03-11T01:42:39.710Z,5.40
2019-03-11T01:47:47.299Z,5.40
2019-03-11T01:52:53.665Z,5.30
2019-03-11T01:58:00.830Z,5.20
2019-03-11T02:03:08.938Z,5.30
2019-03-11T02:08:16.503Z,5.20
2019-03-11T02:13:22.921Z,5.20
2019-03-11T02:18:29.314Z,5.10
2019-03-11T02:23:36.230Z,5.00
2019-03-11T02:28:42.984Z,5.00
2019-03-11T02:33:49.793Z,5.10
2019-03-11T02:38:57.349Z,5.00
2019-03-11T02:44:04.708Z,5.10
2019-03-11T02:49:10.943Z,5.20
2019-03-11T02:54:17.636Z,5.20
2019-03-11T02:59:24.648Z,5.20
2019-03-11T03:04:39.451Z,5.00
2019-03-11T03:09:46.719Z,4.90
2019-03-11T03:14:54.023Z,4.90
2019-03-11T03:20:01.757Z,4.90
2019-03-11T03:25:09.228Z,4.80
2019-03-11T03:30:17.491Z,4.80
2019-03-11T03:35:23.643Z,4.80
2019-03-11T03:40:30.442Z,4.80
2019-03-11T03:45:38.443Z,5.00
2019-03-11T03:50:45.196Z,4.90
2019-03-11T03:55:52.647Z,4.90
2019-03-11T04:00:58.922Z,5.00
2019-03-11T04:06:05.158Z,5.10
2019-03-11T04:11:11.987Z,5.20
2019-03-11T04:16:19.133Z,5.30
2019-03-11T04:21:26.218Z,5.20
2019-03-11T04:26:34.134Z,5.20
2019-03-11T04:31:41.180Z,5.10
2019-03-11T04:36:47.427Z,5.10
2019-03-11T04:47:26.509Z,5.30
2019-03-11T04:52:33.577Z,5.40
2019-03-11T04:57:45.138Z,5.40
2019-03-11T05:02:52.622Z,5.40
2019-03-11T05:07:59.065Z,5.40
2019-03-11T05:13:06.083Z,5.40
2019-03-11T05:18:12.766Z,5.40
2019-03-11T05:23:18.923Z,5.30
2019-03-11T05:28:30.301Z,5.30
2019-03-11T05:33:36.561Z,5.30
2019-03-11T05:38:43.576Z,5.20
2019-03-11T05:43:49.800Z,5.20
2019-03-11T05:48:55.499Z,5.10
2019-03-11T05:54:01.332Z,5.20
2019-03-11T05:59:08.177Z,5.30
2019-03-11T06:04:14.062Z,5.30
2019-03-11T06:09:38.397Z,5.30
2019-03-11T06:14:56.903Z,5.30
2019-03-11T06:20:32.844Z,5.30
2019-03-11T06:25:47.292Z,5.40
2019-03-11T06:30:55.673Z,5.50
2019-03-11T06:36:03.093Z,5.70
2019-03-11T06:41:09.943Z,5.60
2019-03-11T06:46:17.790Z,5.40
2019-03-11T06:51:24.129Z,5.40
2019-03-11T06:56:31.971Z,5.40
2019-03-11T07:01:38.538Z,5.40
2019-03-11T07:06:44.598Z,5.20
2019-03-11T07:11:50.470Z,4.50
2019-03-11T07:16:56.888Z,4.20
2019-03-11T07:22:03.823Z,4.60
2019-03-11T07:27:11.727Z,4.90
2019-03-11T07:32:18.895Z,4.80
2019-03-11T07:37:26.310Z,4.90
2019-03-11T07:42:33.594Z,4.80
2019-03-11T07:47:40.553Z,4.80
2019-03-11T07:52:47.557Z,4.80
2019-03-11T07:57:53.944Z,4.70
2019-03-11T08:03:00.441Z,4.30
2019-03-11T08:08:08.530Z,4.40
2019-03-11T08:13:16.289Z,4.40
2019-03-11T08:18:34.498Z,4.20
2019-03-11T08:23:31.280Z,3.50
2019-03-11T08:28:39.553Z,1.50
2019-03-11T08:33:45.743Z,0.70
2019-03-11T08:38:53.385Z,0.50
2019-03-11T08:44:00.767Z,0.60
2019-03-11T08:49:08.095Z,0.70
2019-03-11T08:54:16.421Z,0.80
2019-03-11T08:59:23.764Z,1.00
2019-03-11T09:04:31.081Z,1.20
2019-03-11T09:09:39.642Z,1.40
2019-03-11T09:14:45.750Z,1.40
2019-03-11T09:19:52.168Z,1.50
2019-03-11T09:24:58.687Z,1.50
2019-03-11T09:30:07.685Z,1.80
2019-03-11T09:35:13.986Z,1.90
2019-03-11T09:40:20.715Z,2.20
2019-03-11T09:45:27.160Z,2.30
2019-03-11T09:50:33.361Z,2.50
2019-03-11T09:55:39.700Z,3.20
2019-03-11T10:00:45.868Z,3.80
2019-03-11T10:05:51.930Z,4.40
2019-03-11T10:10:58.515Z,3.60
2019-03-11T10:16:04.365Z,3.40
2019-03-11T10:21:30.294Z,3.60
2019-03-11T10:26:37.968Z,3.90
2019-03-11T10:31:44.454Z,3.80
2019-03-11T10:36:50.610Z,3.60
2019-03-11T10:41:57.236Z,3.90
2019-03-11T10:47:04.755Z,3.90
2019-03-11T10:52:11.717Z,4.10
2019-03-11T10:57:21.297Z,4.60
2019-03-11T11:02:30.109Z,4.40
2019-03-11T11:07:38.698Z,4.00
2019-03-11T11:12:47.235Z,2.80
2019-03-11T11:17:53.513Z,1.10
2019-03-11T11:23:00.676Z,0.90
2019-03-11T11:28:10.996Z,0.90
2019-03-11T11:33:17.260Z,0.90
2019-03-11T11:38:25.023Z,0.90
2019-03-11T11:43:32.793Z,1.00
2019-03-11T11:48:39.792Z,1.00
2019-03-11T11:53:47.294Z,1.10
2019-03-11T11:58:54.365Z,1.40
2019-03-11T12:04:02.056Z,1.70
2019-03-11T12:09:09.245Z,1.80
2019-03-11T12:14:16.039Z,1.90
2019-03-11T12:19:23.477Z,2.10
2019-03-11T12:24:30.911Z,2.10
2019-03-11T12:29:38.102Z,1.90
2019-03-11T12:34:45.485Z,1.70
2019-03-11T12:39:51.728Z,1.60
2019-03-11T12:44:58.864Z,1.60
2019-03-11T12:50:06.052Z,1.70
2019-03-11T12:55:13.359Z,1.90
2019-03-11T13:00:20.192Z,2.10
2019-03-11T13:05:26.326Z,2.20
2019-03-11T13:10:33.704Z,2.40
2019-03-11T13:15:41.706Z,2.70
2019-03-11T13:20:49.011Z,2.80
2019-03-11T13:25:56.444Z,2.90
2019-03-11T13:31:03.915Z,2.70
2019-03-11T13:36:11.459Z,2.50
2019-03-11T13:41:19.335Z,2.20
2019-03-11T13:46:27.280Z,2.20
2019-03-11T13:51:35.023Z,2.30
2019-03-11T13:57:01.976Z,2.60
2019-03-11T14:02:08.340Z,2.80
2019-03-11T14:07:15.325Z,2.90
2019-03-11T14:12:23.409Z,3.30
2019-03-11T14:17:30.207Z,3.20
2019-03-11T14:22:36.973Z,3.20
2019-03-11T14:27:47.103Z,3.40
2019-03-11T14:32:54.376Z,2.90
2019-03-11T14:38:01.104Z,2.90
2019-03-11T14:43:08.990Z,3.10
2019-03-11T14:48:18.115Z,3.50
2019-03-11T14:53:24.665Z,3.60
2019-03-11T14:58:32.946Z,3.70
2019-03-11T15:03:40.266Z,3.70
2019-03-11T15:08:48.499Z,4.00
2019-03-11T15:13:55.494Z,3.90
2019-03-11T15:19:18.013Z,3.80
2019-03-11T15:24:24.868Z,3.50
2019-03-11T15:29:52.262Z,3.20
2019-03-11T15:35:00.359Z,3.10
2019-03-11T15:40:07.847Z,3.90
2019-03-11T15:45:15.232Z,4.10
2019-03-11T15:50:25.515Z,4.30
2019-03-11T15:55:32.963Z,4.30
2019-03-11T16:00:39.367Z,4.00
2019-03-11T16:05:47.340Z,3.80
2019-03-11T16:11:16.054Z,3.70
2019-03-11T16:16:24.134Z,3.60
2019-03-11T16:21:31.899Z,3.70
2019-03-11T16:26:39.189Z,3.70
2019-03-11T16:31:46.203Z,3.80
2019-03-11T16:36:55.335Z,3.80
2019-03-11T16:42:01.360Z,3.90
2019-03-11T16:47:08.838Z,4.00
2019-03-11T16:52:17.725Z,3.80
2019-03-11T16:57:24.017Z,3.90
2019-03-11T17:02:30.175Z,3.70
2019-03-11T17:07:36.848Z,3.60
2019-03-11T17:12:44.416Z,3.50
2019-03-11T17:17:51.347Z,3.40
2019-03-11T17:22:57.444Z,3.30
2019-03-11T17:28:04.925Z,3.20
2019-03-11T17:33:11.175Z,3.20
2019-03-11T17:38:17.559Z,3.20
2019-03-11T17:43:25.517Z,3.20
2019-03-11T17:48:32.122Z,3.30
2019-03-11T17:53:47.323Z,3.20
2019-03-11T17:58:55.648Z,3.10
2019-03-11T18:04:23.541Z,3.00
2019-03-11T18:09:29.950Z,3.00
2019-03-11T18:14:37.448Z,3.00
2019-03-11T18:19:44.934Z,2.70
2019-03-11T18:24:53.068Z,2.10
2019-03-11T18:30:01.087Z,1.80
2019-03-11T18:35:09.648Z,1.70
2019-03-11T18:40:17.821Z,1.50
2019-03-11T18:45:24.518Z,1.50
2019-03-11T18:50:31.652Z,1.40
2019-03-11T18:55:39.153Z,1.60
2019-03-11T19:00:47.568Z,1.80
2019-03-11T19:05:55.424Z,2.00
2019-03-11T19:11:02.798Z,2.20
2019-03-11T19:16:10.799Z,2.20
2019-03-11T19:21:17.039Z,2.20
2019-03-11T19:26:25.423Z,2.30
2019-03-11T19:31:33.506Z,2.30
2019-03-11T19:36:40.726Z,2.20
2019-03-11T19:41:48.828Z,2.20
2019-03-11T19:46:55.316Z,2.20
2019-03-11T19:52:01.855Z,2.20
2019-03-11T19:57:09.670Z,2.20
2019-03-11T20:02:19.103Z,2.20
2019-03-11T20:07:26.621Z,2.20
2019-03-11T20:12:35.298Z,2.30
2019-03-11T20:17:41.561Z,2.30
2019-03-11T20:22:52.058Z,2.20
2019-03-11T20:27:59.422Z,2.20
2019-03-11T20:33:10.910Z,2.30
2019-03-11T20:38:17.431Z,2.40
2019-03-11T20:43:24.211Z,2.30
2019-03-11T20:48:31.141Z,2.20
2019-03-11T20:53:43.049Z,2.20
2019-03-11T20:58:50.620Z,2.30
2019-03-11T21:03:57.633Z,2.30
2019-03-11T21:09:04.750Z,2.40
2019-03-11T21:14:11.450Z,2.50
2019-03-11T21:19:17.534Z,2.60
2019-03-11T21:24:24.199Z,2.50
2019-03-11T21:29:30.365Z,2.50
2019-03-11T21:34:36.424Z,2.50
2019-03-11T21:39:42.685Z,2.60
2019-03-11T21:45:08.023Z,2.60
2019-03-11T21:50:18.630Z,2.50
2019-03-11T21:55:26.378Z,2.50
2019-03-11T22:00:34.822Z,2.40
2019-03-11T22:05:40.796Z,2.50
2019-03-11T22:10:48.516Z,2.40
2019-03-11T22:15:54.464Z,2.30
2019-03-11T22:21:02.145Z,2.20
2019-03-11T22:26:08.897Z,2.20
2019-03-11T22:31:15.104Z,2.20
2019-03-11T22:36:25.386Z,2.20
2019-03-11T22:41:32.701Z,2.00
2019-03-11T22:46:41.109Z,1.90
2019-03-11T22:51:47.395Z,2.00
2019-03-11T22:56:54.825Z,1.90
2019-03-11T23:02:01.459Z,2.00
2019-03-11T23:07:08.087Z,2.10
2019-03-11T23:12:14.093Z,2.10
2019-03-11T23:17:21.285Z,1.90
2019-03-11T23:22:28.786Z,1.90
2019-03-11T23:27:36.257Z,1.80
2019-03-11T23:32:43.781Z,1.80
2019-03-11T23:37:49.894Z,1.70
2019-03-11T23:42:56.890Z,1.70
2019-03-11T23:48:04.395Z,1.60
2019-03-11T23:53:11.121Z,1.60
2019-03-11T23:58:17.672Z,1.60
